Aigen Im Ennstal, Austria
Current Conditions -  °F | °C
As of 6:50 AM on Sunday 26 Oct 2014 (Local Time) from LOXZ Reporting Station
Broken Clouds Broken Clouds  
Wind Chill: 41°   Ceiling: 2800
Heat Index: 41°   Visibility: 9mi
Dew Point: 41°   Wind: 1mph
Humidity: 100%   Direction: NA
Pressure: 30.33"   Gusts: NA
Location:  47.52°N, 14.14°E
Report Text: LOXZ 260450Z VRB01KT 15KM SCT008ST BKN028SC 05/05 Q1027 RMKOVC
Loading
Personal Weather Stations






























Interactive Weather Map
Tropical Storm Tracking
New forecast layout! Learn more

10-Day Weather Forecast

Advertisements
Track Severe Weather on mobile